Wetterdaten: Woche 12.04.21 - 18.04.21 (KW15)
Datum Zeit Temp. A. Feuchte A. Luftdruck Regen Wind Richtung Taupunkt Windchill Windben
12.04.2021 00:00 7,8 C 75 % 1012,3 hPa 0,0 l/m 0,0 km/h N 3,7 C 7,8 C 0,0 km/h
12.04.2021 01:00 6,7 C 77 % 1012,4 hPa 0,0 l/m 0,0 km/h N 3,0 C 6,7 C 0,0 km/h
12.04.2021 02:00 5,5 C 79 % 1012,5 hPa 0,0 l/m 0,0 km/h N 2,2 C 5,5 C 0,0 km/h
12.04.2021 03:00 4,6 C 81 % 1012,4 hPa 0,0 l/m 0,0 km/h N 1,6 C 4,6 C 0,0 km/h
12.04.2021 04:00 4,5 C 81 % 1012,7 hPa 0,0 l/m 0,0 km/h N 1,6 C 4,5 C 0,0 km/h
12.04.2021 05:00 3,9 C 81 % 1012,7 hPa 0,0 l/m 0,0 km/h N 0,9 C 3,9 C 0,0 km/h
12.04.2021 06:00 3,6 C 82 % 1013,4 hPa 0,0 l/m 0,0 km/h N 0,7 C 3,6 C 0,0 km/h
12.04.2021 07:00 4,7 C 81 % 1014,3 hPa 0,0 l/m 0,2 km/h N 1,7 C 4,7 C 2,0 km/h
12.04.2021 08:00 8,0 C 81 % 1014,1 hPa 0,0 l/m 1,2 km/h N 4,8 C 8,0 C 4,4 km/h
12.04.2021 09:00 12,4 C 74 % 1014,2 hPa 0,0 l/m 0,0 km/h N 7,8 C 12,4 C 2,0 km/h
12.04.2021 10:00 16,1 C 63 % 1014,5 hPa 0,0 l/m 0,7 km/h N 9,1 C 16,1 C 6,0 km/h
12.04.2021 11:00 17,5 C 60 % 1014,6 hPa 0,0 l/m 5,3 km/h N 9,8 C 17,5 C 15,7 km/h
12.04.2021 12:00 17,6 C 59 % 1014,6 hPa 0,0 l/m 6,3 km/h N 9,3 C 17,4 C 20,5 km/h
12.04.2021 13:00 17,0 C 58 % 1015,0 hPa 0,0 l/m 5,6 km/h N 8,6 C 17,0 C 21,3 km/h
12.04.2021 14:00 15,3 C 62 % 1015,9 hPa 0,0 l/m 4,8 km/h N 8,1 C 15,3 C 19,7 km/h
12.04.2021 15:00 11,8 C 69 % 1017,4 hPa 0,0 l/m 9,7 km/h N 6,1 C 9,6 C 28,6 km/h
12.04.2021 16:00 7,4 C 77 % 1018,3 hPa 0,0 l/m 7,1 km/h N 3,7 C 6,6 C 30,6 km/h
12.04.2021 17:00 5,3 C 80 % 1019,4 hPa 1,8 l/m 9,4 km/h N 2,0 C 3,0 C 37,0 km/h
12.04.2021 18:00 4,3 C 81 % 1020,2 hPa 3,9 l/m 16,4 km/h N 1,3 C -2,4 C 42,2 km/h
12.04.2021 19:00 4,0 C 81 % 1022,0 hPa 2,3 l/m 13,8 km/h N 1,0 C -1,4 C 33,8 km/h
12.04.2021 20:00 3,3 C 81 % 1023,3 hPa 0,3 l/m 11,7 km/h N 0,4 C -1,0 C 29,8 km/h
12.04.2021 21:00 3,4 C 82 % 1024,0 hPa 0,0 l/m 8,8 km/h N 0,6 C 1,2 C 27,0 km/h
12.04.2021 22:00 3,4 C 82 % 1024,2 hPa 0,3 l/m 9,3 km/h N 0,7 C 0,9 C 27,8 km/h
12.04.2021 23:00 3,3 C 82 % 1024,6 hPa 0,0 l/m 10,0 km/h N 0,5 C 0,2 C 24,9 km/h
13.04.2021 00:00 3,1 C 82 % 1024,8 hPa 0,0 l/m 9,9 km/h N 0,3 C 0,0 C 22,9 km/h
13.04.2021 01:00 3,1 C 82 % 1024,9 hPa 0,0 l/m 9,3 km/h N 0,3 C 0,6 C 23,3 km/h
13.04.2021 02:00 3,2 C 81 % 1024,8 hPa 0,0 l/m 9,4 km/h N 0,3 C 0,6 C 20,1 km/h
13.04.2021 03:00 3,2 C 81 % 1024,9 hPa 0,0 l/m 9,7 km/h N 0,3 C 0,3 C 23,7 km/h
13.04.2021 04:00 3,2 C 80 % 1024,8 hPa 0,0 l/m 9,4 km/h N 0,1 C 0,6 C 22,9 km/h
13.04.2021 05:00 2,9 C 80 % 1024,8 hPa 0,0 l/m 9,6 km/h N -0,2 C 0,1 C 23,3 km/h
13.04.2021 06:00 2,8 C 79 % 1025,0 hPa 0,0 l/m 9,3 km/h N -0,5 C 0,2 C 25,0 km/h
13.04.2021 07:00 2,7 C 80 % 1025,3 hPa 0,3 l/m 7,3 km/h N -0,5 C 1,8 C 19,3 km/h
13.04.2021 08:00 2,4 C 81 % 1025,4 hPa 0,3 l/m 7,5 km/h N -0,5 C 1,3 C 20,1 km/h
13.04.2021 09:00 2,6 C 82 % 1025,9 hPa 0,0 l/m 8,6 km/h N -0,1 C 0,6 C 23,3 km/h
13.04.2021 10:00 3,0 C 81 % 1025,9 hPa 0,0 l/m 7,9 km/h N 0,1 C 1,6 C 22,5 km/h
13.04.2021 11:00 3,4 C 82 % 1025,6 hPa 0,3 l/m 8,2 km/h N 0,6 C 1,7 C 22,1 km/h
13.04.2021 12:00 3,4 C 82 % 1025,4 hPa 0,5 l/m 9,6 km/h N 0,6 C 0,7 C 23,7 km/h
13.04.2021 13:00 3,2 C 82 % 1025,0 hPa 0,5 l/m 7,5 km/h N 0,4 C 2,2 C 18,9 km/h
13.04.2021 14:00 2,9 C 82 % 1024,5 hPa 0,5 l/m 8,9 km/h N 0,2 C 0,7 C 24,1 km/h
13.04.2021 15:00 2,9 C 82 % 1024,1 hPa 1,0 l/m 8,8 km/h N 0,1 C 0,8 C 24,1 km/h
13.04.2021 16:00 2,5 C 81 % 1024,1 hPa 0,8 l/m 8,5 km/h N -0,4 C 0,5 C 22,9 km/h
13.04.2021 17:00 2,3 C 81 % 1023,9 hPa 1,0 l/m 7,5 km/h N -0,7 C 1,2 C 19,3 km/h
13.04.2021 18:00 2,0 C 81 % 1023,8 hPa 1,0 l/m 9,8 km/h N -0,9 C -1,0 C 24,9 km/h
13.04.2021 19:00 1,9 C 81 % 1024,0 hPa 0,5 l/m 8,3 km/h N -1,0 C 0,1 C 22,9 km/h
13.04.2021 20:00 1,9 C 81 % 1024,4 hPa 0,8 l/m 7,4 km/h N -1,0 C 1,0 C 20,5 km/h
13.04.2021 21:00 2,1 C 81 % 1024,7 hPa 0,5 l/m 7,2 km/h N -0,8 C 1,3 C 18,5 km/h
13.04.2021 22:00 2,2 C 81 % 1024,8 hPa 0,8 l/m 6,1 km/h N -0,7 C 1,7 C 17,7 km/h
13.04.2021 23:00 1,9 C 81 % 1024,7 hPa 0,8 l/m 8,1 km/h N -1,0 C 0,3 C 20,5 km/h
14.04.2021 00:00 2,0 C 81 % 1024,3 hPa 0,3 l/m 7,7 km/h N -0,9 C 0,7 C 21,7 km/h
14.04.2021 01:00 2,1 C 81 % 1024,0 hPa 0,3 l/m 8,6 km/h N -0,8 C -0,0 C 23,3 km/h
14.04.2021 02:00 2,2 C 82 % 1023,6 hPa 0,3 l/m 8,5 km/h N -0,5 C 0,2 C 21,7 km/h
14.04.2021 03:00 2,1 C 82 % 1023,5 hPa 0,3 l/m 7,8 km/h N -0,7 C 0,8 C 19,3 km/h
14.04.2021 04:00 2,2 C 81 % 1023,3 hPa 0,3 l/m 9,1 km/h N -0,7 C -0,3 C 24,5 km/h
14.04.2021 05:00 2,2 C 81 % 1023,2 hPa 0,3 l/m 7,4 km/h N -0,7 C 1,3 C 22,5 km/h
14.04.2021 06:00 2,3 C 81 % 1023,3 hPa 0,0 l/m 8,1 km/h N -0,6 C 0,7 C 10,4 km/h
14.04.2021 07:00 2,3 C 81 % 1023,6 hPa 0,0 l/m 8,0 km/h N -0,6 C 0,8 C 8,0 km/h
14.04.2021 08:00 2,3 C 81 % 1023,6 hPa 0,0 l/m 8,0 km/h N -0,6 C 0,8 C 8,0 km/h
14.04.2021 09:00 2,3 C 81 % 1023,7 hPa 0,0 l/m 8,0 km/h N -0,6 C 0,8 C 8,0 km/h
14.04.2021 10:00 2,3 C 81 % 1023,9 hPa 0,0 l/m 8,0 km/h N -0,6 C 0,8 C 8,0 km/h
14.04.2021 11:00 2,3 C 81 % 1023,7 hPa 0,0 l/m 8,0 km/h N -0,6 C 0,8 C 8,0 km/h
14.04.2021 12:00 2,3 C 81 % 1023,5 hPa 0,0 l/m 8,0 km/h N -0,6 C 0,8 C 8,0 km/h
14.04.2021 13:00 2,3 C 81 % 1023,1 hPa 0,0 l/m 8,0 km/h N -0,6 C 0,8 C 8,0 km/h
14.04.2021 14:00 2,3 C 81 % 1022,8 hPa 0,0 l/m 8,0 km/h N -0,6 C 0,8 C 8,0 km/h
14.04.2021 15:00 2,3 C 81 % 1022,3 hPa 0,0 l/m 8,0 km/h N -0,6 C 0,8 C 8,0 km/h
14.04.2021 16:00 2,3 C 81 % 1022,1 hPa 0,0 l/m 8,0 km/h N -0,6 C 0,8 C 8,0 km/h
14.04.2021 17:00 2,3 C 81 % 1021,4 hPa 0,0 l/m 8,0 km/h N -0,6 C 0,8 C 8,0 km/h
14.04.2021 18:00 2,3 C 81 % 1021,5 hPa 0,0 l/m 8,0 km/h N -0,6 C 0,8 C 8,0 km/h
14.04.2021 19:00 2,3 C 81 % 1021,9 hPa 0,0 l/m 8,0 km/h N -0,6 C 0,8 C 8,0 km/h
14.04.2021 20:00 2,3 C 81 % 1022,3 hPa 0,0 l/m 8,0 km/h N -0,6 C 0,8 C 8,0 km/h
14.04.2021 21:00 2,3 C 81 % 1022,6 hPa 0,0 l/m 8,0 km/h N -0,6 C 0,8 C 8,0 km/h
14.04.2021 22:00 2,3 C 81 % 1022,7 hPa 0,0 l/m 8,0 km/h N -0,6 C 0,8 C 8,0 km/h
14.04.2021 23:00 2,3 C 81 % 1022,6 hPa 0,0 l/m 8,0 km/h N -0,6 C 0,8 C 8,0 km/h
15.04.2021 00:00 2,3 C 81 % 1022,7 hPa 0,0 l/m 8,0 km/h N -0,6 C 0,8 C 8,0 km/h
15.04.2021 01:00 2,3 C 81 % 1022,6 hPa 0,0 l/m 8,0 km/h N -0,6 C 0,8 C 8,0 km/h
15.04.2021 02:00 2,3 C 81 % 1022,2 hPa 0,0 l/m 8,0 km/h N -0,6 C 0,8 C 8,0 km/h
15.04.2021 03:00 2,3 C 81 % 1022,0 hPa 0,0 l/m 8,0 km/h N -0,6 C 0,8 C 8,0 km/h
15.04.2021 04:00 2,3 C 81 % 1021,8 hPa 0,0 l/m 8,0 km/h N -0,6 C 0,8 C 8,0 km/h
15.04.2021 05:00 2,3 C 81 % 1021,8 hPa 0,0 l/m 8,0 km/h N -0,6 C 0,8 C 8,0 km/h
15.04.2021 06:00 2,3 C 81 % 1021,8 hPa 0,0 l/m 8,0 km/h N -0,6 C 0,8 C 8,0 km/h
15.04.2021 07:00 2,3 C 81 % 1022,1 hPa 0,0 l/m 8,0 km/h N -0,6 C 0,8 C 8,0 km/h
15.04.2021 08:00 2,3 C 81 % 1022,0 hPa 0,0 l/m 8,0 km/h N -0,6 C 0,8 C 8,0 km/h
15.04.2021 09:00 2,3 C 81 % 1022,0 hPa 0,0 l/m 8,0 km/h N -0,6 C 0,8 C 8,0 km/h
15.04.2021 10:00 2,3 C 81 % 1022,1 hPa 0,0 l/m 8,0 km/h N -0,6 C 0,8 C 8,0 km/h
15.04.2021 11:00 2,3 C 81 % 1021,8 hPa 0,0 l/m 8,0 km/h N -0,6 C 0,8 C 8,0 km/h
15.04.2021 12:00 2,3 C 81 % 1021,7 hPa 0,0 l/m 8,0 km/h N -0,6 C 0,8 C 8,0 km/h
15.04.2021 13:00 2,3 C 81 % 1021,4 hPa 0,0 l/m 8,0 km/h N -0,6 C 0,8 C 8,0 km/h
15.04.2021 14:00 1,1 C 41 % 1021,0 hPa 0,0 l/m 4,0 km/h N -30,3 C 0,4 C 4,0 km/h
15.04.2021 15:00 0,0 C 0 % 1020,6 hPa 0,0 l/m 0,0 km/h N -60,0 C 0,0 C 0,0 km/h
15.04.2021 16:00 0,0 C 0 % 1020,4 hPa 0,0 l/m 0,0 km/h N -60,0 C 0,0 C 0,0 km/h
15.04.2021 17:00 0,0 C 0 % 1020,5 hPa 0,0 l/m 0,0 km/h N -60,0 C 0,0 C 0,0 km/h
15.04.2021 18:00 0,0 C 0 % 1020,6 hPa 0,0 l/m 0,0 km/h N -60,0 C 0,0 C 0,0 km/h
15.04.2021 19:00 0,0 C 0 % 1020,9 hPa 0,0 l/m 0,0 km/h N -60,0 C 0,0 C 0,0 km/h
15.04.2021 20:00 0,0 C 0 % 1021,4 hPa 0,0 l/m 0,0 km/h N -60,0 C 0,0 C 0,0 km/h
15.04.2021 21:00 0,0 C 0 % 1021,5 hPa 0,0 l/m 0,0 km/h N -60,0 C 0,0 C 0,0 km/h
15.04.2021 22:00 0,0 C 0 % 1021,5 hPa 0,0 l/m 0,0 km/h N -60,0 C 0,0 C 0,0 km/h
15.04.2021 23:00 0,0 C 0 % 1021,3 hPa 0,0 l/m 0,0 km/h N -60,0 C 0,0 C 0,0 km/h
16.04.2021 00:00 0,0 C 0 % 1021,2 hPa 0,0 l/m 0,0 km/h N -60,0 C 0,0 C 0,0 km/h
16.04.2021 01:00 0,0 C 0 % 1021,2 hPa 0,0 l/m 0,0 km/h N -60,0 C 0,0 C 0,0 km/h
16.04.2021 02:00 0,0 C 0 % 1020,9 hPa 0,0 l/m 0,0 km/h N -60,0 C 0,0 C 0,0 km/h
16.04.2021 03:00 0,0 C 0 % 1020,6 hPa 0,0 l/m 0,0 km/h N -60,0 C 0,0 C 0,0 km/h
16.04.2021 04:00 0,0 C 0 % 1020,2 hPa 0,0 l/m 0,0 km/h N -60,0 C 0,0 C 0,0 km/h
16.04.2021 05:00 0,0 C 0 % 1020,0 hPa 0,0 l/m 0,0 km/h N -60,0 C 0,0 C 0,0 km/h
16.04.2021 06:00 0,0 C 0 % 1020,3 hPa 0,0 l/m 0,0 km/h N -60,0 C 0,0 C 0,0 km/h
16.04.2021 07:00 0,0 C 0 % 1020,4 hPa 0,0 l/m 0,0 km/h N -60,0 C 0,0 C 0,0 km/h
16.04.2021 08:00 0,0 C 0 % 1020,6 hPa 0,0 l/m 0,0 km/h N -60,0 C 0,0 C 0,0 km/h
16.04.2021 09:00 0,0 C 0 % 1020,8 hPa 0,0 l/m 0,0 km/h N -60,0 C 0,0 C 0,0 km/h
16.04.2021 10:00 0,0 C 0 % 1021,0 hPa 0,0 l/m 0,0 km/h N -60,0 C 0,0 C 0,0 km/h
16.04.2021 11:00 0,0 C 0 % 1021,0 hPa 0,0 l/m 0,0 km/h N -60,0 C 0,0 C 0,0 km/h
16.04.2021 12:00 0,0 C 0 % 1020,8 hPa 0,0 l/m 0,0 km/h N -60,0 C 0,0 C 0,0 km/h
16.04.2021 13:00 0,0 C 0 % 1020,5 hPa 0,0 l/m 0,0 km/h N -60,0 C 0,0 C 0,0 km/h
16.04.2021 14:00 0,0 C 0 % 1020,5 hPa 0,0 l/m 0,0 km/h N -60,0 C 0,0 C 0,0 km/h
16.04.2021 15:00 0,0 C 0 % 1020,1 hPa 0,0 l/m 0,0 km/h N -60,0 C 0,0 C 0,0 km/h
16.04.2021 16:00 0,0 C 0 % 1019,8 hPa 0,0 l/m 0,0 km/h N -60,0 C 0,0 C 0,0 km/h
16.04.2021 17:00 0,0 C 0 % 1019,8 hPa 0,0 l/m 0,0 km/h N -60,0 C 0,0 C 0,0 km/h
16.04.2021 18:00 0,0 C 0 % 1019,9 hPa 0,0 l/m 0,0 km/h N -60,0 C 0,0 C 0,0 km/h
16.04.2021 19:00 0,0 C 0 % 1020,0 hPa 0,0 l/m 0,0 km/h N -60,0 C 0,0 C 0,0 km/h
16.04.2021 20:00 0,0 C 0 % 1020,4 hPa 0,0 l/m 0,0 km/h N -60,0 C 0,0 C 0,0 km/h
16.04.2021 21:00 0,0 C 0 % 1020,8 hPa 0,0 l/m 0,0 km/h N -60,0 C 0,0 C 0,0 km/h
16.04.2021 22:00 0,0 C 0 % 1020,9 hPa 0,0 l/m 0,0 km/h N -60,0 C 0,0 C 0,0 km/h
16.04.2021 23:00 0,0 C 0 % 1020,8 hPa 0,0 l/m 0,0 km/h N -60,0 C 0,0 C 0,0 km/h
17.04.2021 00:00 0,0 C 0 % 1020,5 hPa 0,0 l/m 0,0 km/h N -60,0 C 0,0 C 0,0 km/h
17.04.2021 01:00 0,0 C 0 % 1020,2 hPa 0,0 l/m 0,0 km/h N -60,0 C 0,0 C 0,0 km/h
17.04.2021 02:00 0,0 C 0 % 1019,7 hPa 0,0 l/m 0,0 km/h N -60,0 C 0,0 C 0,0 km/h
17.04.2021 03:00 0,0 C 0 % 1019,5 hPa 0,0 l/m 0,0 km/h N -60,0 C 0,0 C 0,0 km/h
17.04.2021 04:00 0,0 C 0 % 1019,3 hPa 0,0 l/m 0,0 km/h N -60,0 C 0,0 C 0,0 km/h
17.04.2021 05:00 0,0 C 0 % 1019,0 hPa 0,0 l/m 0,0 km/h N -60,0 C 0,0 C 0,0 km/h
17.04.2021 06:00 0,0 C 0 % 1018,9 hPa 0,0 l/m 0,0 km/h N -60,0 C 0,0 C 0,0 km/h
17.04.2021 07:00 0,0 C 0 % 1019,0 hPa 0,0 l/m 0,0 km/h N -60,0 C 0,0 C 0,0 km/h
17.04.2021 08:00 0,0 C 0 % 1019,1 hPa 0,0 l/m 0,0 km/h N -60,0 C 0,0 C 0,0 km/h
17.04.2021 09:00 0,0 C 0 % 1019,1 hPa 0,0 l/m 0,0 km/h N -60,0 C 0,0 C 0,0 km/h
17.04.2021 10:00 0,0 C 0 % 1019,0 hPa 0,0 l/m 0,0 km/h N -60,0 C 0,0 C 0,0 km/h
17.04.2021 11:00 0,0 C 0 % 1018,7 hPa 0,0 l/m 0,0 km/h N -60,0 C 0,0 C 0,0 km/h
17.04.2021 12:00 0,0 C 0 % 1018,4 hPa 0,0 l/m 0,0 km/h N -60,0 C 0,0 C 0,0 km/h
17.04.2021 13:00 0,0 C 0 % 1018,0 hPa 0,0 l/m 0,0 km/h N -60,0 C 0,0 C 0,0 km/h
17.04.2021 14:00 0,0 C 0 % 1018,0 hPa 0,0 l/m 0,0 km/h N -60,0 C 0,0 C 0,0 km/h
17.04.2021 15:00 0,0 C 0 % 1017,7 hPa 0,0 l/m 0,0 km/h N -60,0 C 0,0 C 0,0 km/h
17.04.2021 16:00 0,0 C 0 % 1017,8 hPa 0,0 l/m 0,0 km/h N -60,0 C 0,0 C 0,0 km/h
17.04.2021 17:00 0,0 C 0 % 1017,5 hPa 0,0 l/m 0,0 km/h N -60,0 C 0,0 C 0,0 km/h
17.04.2021 18:00 0,0 C 0 % 1017,5 hPa 0,0 l/m 0,0 km/h N -60,0 C 0,0 C 0,0 km/h
17.04.2021 19:00 0,0 C 0 % 1017,9 hPa 0,0 l/m 0,0 km/h N -60,0 C 0,0 C 0,0 km/h
17.04.2021 20:00 0,0 C 0 % 1018,5 hPa 0,0 l/m 0,0 km/h N -60,0 C 0,0 C 0,0 km/h
17.04.2021 21:00 0,0 C 0 % 1018,7 hPa 0,0 l/m 0,0 km/h N -60,0 C 0,0 C 0,0 km/h
17.04.2021 22:00 0,0 C 0 % 1018,7 hPa 0,0 l/m 0,0 km/h N -60,0 C 0,0 C 0,0 km/h
17.04.2021 23:00 0,0 C 0 % 1018,6 hPa 0,0 l/m 0,0 km/h N -60,0 C 0,0 C 0,0 km/h
18.04.2021 00:00 0,0 C 0 % 1018,5 hPa 0,0 l/m 0,0 km/h N -60,0 C 0,0 C 0,0 km/h
18.04.2021 01:00 0,0 C 0 % 1018,5 hPa 0,0 l/m 0,0 km/h N -60,0 C 0,0 C 0,0 km/h
18.04.2021 02:00 0,0 C 0 % 1018,1 hPa 0,0 l/m 0,0 km/h N -60,0 C 0,0 C 0,0 km/h
18.04.2021 03:00 0,0 C 0 % 1017,8 hPa 0,0 l/m 0,0 km/h N -60,0 C 0,0 C 0,0 km/h
18.04.2021 04:00 0,0 C 0 % 1017,4 hPa 0,0 l/m 0,0 km/h N -60,0 C 0,0 C 0,0 km/h
18.04.2021 05:00 0,0 C 0 % 1017,3 hPa 0,0 l/m 0,0 km/h N -60,0 C 0,0 C 0,0 km/h
18.04.2021 06:00 0,0 C 0 % 1017,4 hPa 0,0 l/m 0,0 km/h N -60,0 C 0,0 C 0,0 km/h
18.04.2021 07:00 0,0 C 0 % 1017,4 hPa 0,0 l/m 0,0 km/h N -60,0 C 0,0 C 0,0 km/h
18.04.2021 08:00 0,0 C 0 % 1017,4 hPa 0,0 l/m 0,0 km/h N -60,0 C 0,0 C 0,0 km/h
18.04.2021 09:00 0,0 C 0 % 1017,4 hPa 0,0 l/m 0,0 km/h N -60,0 C 0,0 C 0,0 km/h
18.04.2021 10:00 0,0 C 0 % 1017,5 hPa 0,0 l/m 0,0 km/h N -60,0 C 0,0 C 0,0 km/h
18.04.2021 11:00 0,0 C 0 % 1017,6 hPa 0,0 l/m 0,0 km/h N -60,0 C 0,0 C 0,0 km/h
18.04.2021 12:00 0,0 C 0 % 1017,6 hPa 0,0 l/m 0,0 km/h N -60,0 C 0,0 C 0,0 km/h
18.04.2021 13:00 0,0 C 0 % 1017,4 hPa 0,0 l/m 0,0 km/h N -60,0 C 0,0 C 0,0 km/h
18.04.2021 14:00 0,0 C 0 % 1017,1 hPa 0,0 l/m 0,0 km/h N -60,0 C 0,0 C 0,0 km/h
18.04.2021 15:00 0,0 C 0 % 1017,0 hPa 0,0 l/m 0,0 km/h N -60,0 C 0,0 C 0,0 km/h
18.04.2021 16:00 0,0 C 0 % 1016,9 hPa 0,0 l/m 0,0 km/h N -60,0 C 0,0 C 0,0 km/h
18.04.2021 17:00 0,0 C 0 % 1016,8 hPa 0,0 l/m 0,0 km/h N -60,0 C 0,0 C 0,0 km/h
18.04.2021 18:00 0,0 C 0 % 1016,8 hPa 0,0 l/m 0,0 km/h N -60,0 C 0,0 C 0,0 km/h
18.04.2021 19:00 0,0 C 0 % 1017,1 hPa 0,0 l/m 0,0 km/h N -60,0 C 0,0 C 0,0 km/h
18.04.2021 20:00 0,0 C 0 % 1017,3 hPa 0,0 l/m 0,0 km/h N -60,0 C 0,0 C 0,0 km/h
18.04.2021 21:00 0,0 C 0 % 1017,7 hPa 0,0 l/m 0,0 km/h N -60,0 C 0,0 C 0,0 km/h
18.04.2021 22:00 0,0 C 0 % 1017,7 hPa 0,0 l/m 0,0 km/h N -60,0 C 0,0 C 0,0 km/h
18.04.2021 23:00 0,0 C 0 % 1017,5 hPa 0,0 l/m 0,0 km/h N -60,0 C 0,0 C 0,0 km/h
Min-Datum _ 15.04.21 15.04.21 12.04.21 - 12.04.21 - 15.04.21 12.04.21 12.04.21
_ Min-Zeit 14:30 14:30 00:00 - 00:00 - 14:30 18:45 00:00
Minimum _ 0,0 C 0 % 1012,2 hPa - 0,0 km/h - -60,0 C -4,1 C 0,0 km/h
Max-Datum _ 12.04.21 12.04.21 13.04.21 12.04.21 12.04.21 - 12.04.21 12.04.21 12.04.21
_ Max-Zeit 11:45 06:00 10:00 18:00 18:45 - 11:00 11:45 18:45
Maximum _ 17,7 C 82 % 1026,1 hPa 3,9 l/m 19,4 km/h
N
- 9,9 C 17,7 C 51,5 km/h
N
Durchschnitt _ 2,0 C 41 % 1020,4 hPa #19,8 l/m 3,8 km/h N -28,8 C 1,2 C 7,7 km/h